Time;durP1;ratioP1;P1;durP2;ratioP2;P2;SDS_P1;SDS_P2;PMS_P1;PMS_P2;Temp;Humidity;BMP_temperature;BMP_pressure;BME280_temperature;BME280_humidity;BME280_pressure;Samples;Min_cycle;Max_cycle;Signal;HPM_P1;HPM_P2
2023/09/03 00:00:37;;;;;;;9.87;5.13;;;;;;;14.53;100.00;101805.34;5911951;29;20043;-68
2023/09/03 00:03:33;;;;;;;12.98;5.22;;;;;;;14.44;100.00;101808.88;5911934;29;20032;-67
2023/09/03 00:06:28;;;;;;;10.67;5.57;;;;;;;14.35;100.00;101821.25;5912834;29;20032;-67
2023/09/03 00:09:23;;;;;;;11.37;5.20;;;;;;;14.22;100.00;101799.34;5912848;29;20040;-67
2023/09/03 00:12:18;;;;;;;10.53;5.90;;;;;;;14.17;100.00;101796.28;5912325;29;20044;-67
2023/09/03 00:15:14;;;;;;;16.27;5.70;;;;;;;14.37;100.00;101786.44;5912158;29;20052;-67
2023/09/03 00:18:12;;;;;;;9.83;4.97;;;;;;;14.18;100.00;101803.31;5912487;29;20465;-67
2023/09/03 00:21:07;;;;;;;8.43;5.53;;;;;;;14.11;100.00;101789.69;5912392;29;20385;-67
2023/09/03 00:24:03;;;;;;;10.97;4.77;;;;;;;14.00;100.00;101805.81;5911453;29;20047;-68
2023/09/03 00:26:58;;;;;;;9.52;5.00;;;;;;;13.79;100.00;101799.81;5912009;29;20104;-67
2023/09/03 00:29:54;;;;;;;9.00;5.28;;;;;;;13.79;100.00;101821.13;5911683;29;20495;-67
2023/09/03 00:32:49;;;;;;;10.27;5.83;;;;;;;13.77;100.00;101820.44;5911300;29;20099;-67
2023/09/03 00:35:46;;;;;;;12.73;5.60;;;;;;;13.69;100.00;101825.63;5911416;29;20291;-68
2023/09/03 00:38:41;;;;;;;12.18;6.22;;;;;;;13.67;100.00;101824.91;5912001;29;20484;-68
2023/09/03 00:41:36;;;;;;;10.73;6.17;;;;;;;13.68;100.00;101806.13;5912106;29;20091;-68
2023/09/03 00:44:32;;;;;;;12.90;5.32;;;;;;;13.50;100.00;101815.78;5911624;29;20025;-68
2023/09/03 00:47:27;;;;;;;9.90;5.27;;;;;;;13.54;100.00;101835.84;5911673;29;20044;-68
2023/09/03 00:50:22;;;;;;;11.63;5.33;;;;;;;13.53;100.00;101843.97;5911157;29;20525;-67
2023/09/03 00:53:18;;;;;;;7.57;4.77;;;;;;;13.53;100.00;101854.63;5909696;29;20281;-67
2023/09/03 00:56:14;;;;;;;12.57;5.13;;;;;;;13.48;100.00;101847.03;5894803;29;20085;-67
2023/09/03 00:59:10;;;;;;;9.63;4.88;;;;;;;13.29;100.00;101830.19;5911882;29;20495;-67
2023/09/03 01:02:05;;;;;;;8.68;4.65;;;;;;;13.15;100.00;101844.72;5911048;29;20036;-68
2023/09/03 01:05:00;;;;;;;9.30;4.93;;;;;;;13.23;100.00;101852.88;5910652;29;20094;-66
2023/09/03 01:07:57;;;;;;;8.33;4.87;;;;;;;13.07;100.00;101863.19;5911326;29;20273;-67
2023/09/03 01:11:17;;;;;;;11.57;5.20;;;;;;;13.09;100.00;101875.38;5911589;29;20115;-68
2023/09/03 01:14:39;;;;;;;9.15;4.95;;;;;;;13.17;100.00;101879.19;5910867;29;20032;-68
2023/09/03 01:17:47;;;;;;;7.78;4.72;;;;;;;13.10;100.00;101861.06;5920603;29;20378;-67
2023/09/03 01:20:44;;;;;;;8.05;5.03;;;;;;;13.18;100.00;101864.91;5911268;29;20044;-68
2023/09/03 01:24:11;;;;;;;7.65;5.38;;;;;;;13.07;100.00;101853.34;5893311;29;20068;-68
2023/09/03 01:27:16;;;;;;;9.98;5.47;;;;;;;12.95;100.00;101859.72;5911006;29;20032;-67
2023/09/03 01:30:12;;;;;;;10.15;4.35;;;;;;;12.84;100.00;101862.47;5894462;29;20039;-68
2023/09/03 01:33:07;;;;;;;9.05;4.25;;;;;;;12.81;100.00;101857.41;5893816;29;20040;-68
2023/09/03 01:36:06;;;;;;;10.70;4.53;;;;;;;12.95;100.00;101857.06;5893246;29;20091;-67
2023/09/03 01:39:04;;;;;;;9.60;4.20;;;;;;;13.11;100.00;101861.94;5894390;29;20032;-67
2023/09/03 01:41:59;;;;;;;9.73;4.78;;;;;;;13.23;100.00;101868.00;5910494;29;20116;-67
2023/09/03 01:44:54;;;;;;;7.77;4.40;;;;;;;13.11;100.00;101865.44;5910422;29;20036;-68
2023/09/03 01:47:53;;;;;;;8.77;4.47;;;;;;;13.08;100.00;101872.84;5910490;29;20507;-67
2023/09/03 01:51:02;;;;;;;7.55;4.43;;;;;;;13.10;100.00;101884.19;5894163;29;20047;-66
2023/09/03 01:54:06;;;;;;;8.52;4.35;;;;;;;13.26;100.00;101895.22;5892618;29;20068;-67
2023/09/03 01:57:05;;;;;;;7.88;4.88;;;;;;;13.25;100.00;101882.03;5910041;29;20036;-67
2023/09/03 02:00:05;;;;;;;7.70;3.80;;;;;;;13.11;100.00;101854.78;5893769;29;20033;-67
2023/09/03 02:03:01;;;;;;;9.88;4.90;;;;;;;13.02;100.00;101850.22;5909513;29;20048;-66
2023/09/03 02:05:56;;;;;;;10.20;4.13;;;;;;;13.11;100.00;101873.44;5893029;29;20041;-67
2023/09/03 02:08:52;;;;;;;9.25;4.13;;;;;;;13.05;100.00;101867.75;5909289;29;20479;-67
2023/09/03 02:11:47;;;;;;;10.60;5.00;;;;;;;12.97;100.00;101857.78;5910347;29;20040;-66
2023/09/03 02:14:42;;;;;;;8.97;4.07;;;;;;;13.07;100.00;101860.53;5909503;29;20032;-67
2023/09/03 02:17:38;;;;;;;10.17;4.40;;;;;;;13.03;100.00;101865.22;5910203;29;20037;-67
2023/09/03 02:20:34;;;;;;;9.30;4.60;;;;;;;12.94;100.00;101846.53;5911995;29;20044;-67
2023/09/03 02:23:29;;;;;;;8.02;4.35;;;;;;;13.05;100.00;101860.59;5909078;29;20048;-67
2023/09/03 02:26:25;;;;;;;7.83;4.33;;;;;;;12.87;100.00;101837.41;5910426;29;20067;-67
2023/09/03 02:29:20;;;;;;;9.77;4.67;;;;;;;12.80;100.00;101831.75;5909979;29;20032;-66
2023/09/03 02:32:15;;;;;;;8.40;4.67;;;;;;;12.83;100.00;101838.63;5910321;29;20044;-68
2023/09/03 02:35:10;;;;;;;7.37;4.57;;;;;;;12.61;100.00;101821.00;5892659;29;20037;-66
2023/09/03 02:38:06;;;;;;;7.90;4.10;;;;;;;12.76;100.00;101858.78;5909983;29;20036;-67
2023/09/03 02:41:01;;;;;;;8.10;4.17;;;;;;;12.67;100.00;101860.41;5920319;29;20032;-67
2023/09/03 02:43:57;;;;;;;7.53;4.40;;;;;;;12.54;100.00;101841.16;5910522;29;20081;-67
2023/09/03 02:46:53;;;;;;;10.25;4.45;;;;;;;12.60;100.00;101848.63;5910156;29;20039;-66
2023/09/03 02:49:48;;;;;;;7.17;4.27;;;;;;;12.82;100.00;101859.13;5909898;29;20040;-67
2023/09/03 02:52:43;;;;;;;7.30;4.50;;;;;;;12.77;100.00;101849.84;5910129;29;20042;-66
2023/09/03 02:55:38;;;;;;;8.70;4.30;;;;;;;13.01;100.00;101853.03;5909091;29;20484;-68
2023/09/03 02:58:34;;;;;;;8.13;4.47;;;;;;;12.62;100.00;101830.69;5909834;29;20111;-67
2023/09/03 03:01:29;;;;;;;7.87;4.77;;;;;;;12.61;100.00;101844.97;5909557;29;20112;-68
2023/09/03 03:04:24;;;;;;;7.90;4.00;;;;;;;12.43;100.00;101851.84;5908738;29;20044;-67
2023/09/03 03:07:20;;;;;;;8.33;4.37;;;;;;;12.24;100.00;101841.09;5910312;29;20285;-68
2023/09/03 03:10:15;;;;;;;11.00;4.17;;;;;;;12.37;100.00;101823.97;5909671;29;20035;-67
2023/09/03 03:13:10;;;;;;;9.73;4.95;;;;;;;12.28;100.00;101829.22;5911282;29;20032;-67
2023/09/03 03:16:07;;;;;;;8.80;4.33;;;;;;;12.17;100.00;101846.09;5925963;29;20042;-66
2023/09/03 03:19:02;;;;;;;11.07;5.35;;;;;;;12.12;100.00;101864.22;5913818;29;20091;-67
2023/09/03 03:21:58;;;;;;;9.65;5.40;;;;;;;12.15;100.00;101873.78;5913414;29;20032;-68
2023/09/03 03:24:53;;;;;;;9.68;5.45;;;;;;;12.17;100.00;101866.53;5912702;29;20036;-68
2023/09/03 03:27:48;;;;;;;10.20;5.37;;;;;;;12.18;100.00;101882.34;5913499;29;20044;-68
2023/09/03 03:30:44;;;;;;;9.83;5.20;;;;;;;12.00;100.00;101870.56;5913166;29;20036;-67
2023/09/03 03:33:41;;;;;;;9.73;5.53;;;;;;;12.04;100.00;101887.13;5912621;29;20435;-66
2023/09/03 03:36:37;;;;;;;15.13;5.65;;;;;;;12.04;100.00;101900.41;5912819;29;20524;-68
2023/09/03 03:39:32;;;;;;;12.00;5.17;;;;;;;12.10;100.00;101918.50;5912199;29;20041;-67
2023/09/03 03:42:27;;;;;;;10.40;5.80;;;;;;;12.02;100.00;101899.69;5912508;29;20316;-68
2023/09/03 03:45:22;;;;;;;13.73;6.17;;;;;;;12.20;100.00;101919.44;5912293;29;20049;-67
2023/09/03 03:48:18;;;;;;;13.17;6.43;;;;;;;12.21;100.00;101921.97;5913331;29;20044;-68
2023/09/03 03:51:13;;;;;;;11.03;5.90;;;;;;;12.20;100.00;101928.25;5912901;29;20528;-68
2023/09/03 03:54:08;;;;;;;12.25;5.53;;;;;;;12.37;100.00;101916.22;5912250;29;20064;-66
2023/09/03 03:57:04;;;;;;;13.37;6.33;;;;;;;12.39;100.00;101909.78;5912637;29;20043;-68
2023/09/03 03:59:59;;;;;;;11.85;6.35;;;;;;;12.31;100.00;101903.44;5912560;29;20233;-67
2023/09/03 04:02:58;;;;;;;11.17;5.73;;;;;;;12.16;100.00;101912.69;5895505;29;20092;-65
2023/09/03 04:05:57;;;;;;;9.65;5.82;;;;;;;12.33;100.00;101926.28;5912592;29;20269;-66
2023/09/03 04:08:52;;;;;;;12.45;5.88;;;;;;;12.08;100.00;101915.13;5911916;29;20381;-66
2023/09/03 04:11:48;;;;;;;12.90;6.27;;;;;;;12.01;100.00;101929.91;5912943;29;20040;-68
2023/09/03 04:14:45;;;;;;;11.80;6.10;;;;;;;11.94;100.00;101908.28;5915370;29;20067;-66
2023/09/03 04:17:40;;;;;;;11.18;5.72;;;;;;;11.81;100.00;101911.09;5928956;29;20028;-67
2023/09/03 04:20:35;;;;;;;10.50;5.97;;;;;;;11.85;100.00;101920.50;5912998;29;20067;-68
2023/09/03 04:23:30;;;;;;;11.60;6.40;;;;;;;11.84;100.00;101928.63;5910867;29;20473;-66
2023/09/03 04:26:26;;;;;;;14.30;5.97;;;;;;;11.92;100.00;101940.31;5911889;29;20033;-66
2023/09/03 04:29:21;;;;;;;13.30;7.20;;;;;;;12.01;100.00;101945.88;5912635;29;20277;-67
2023/09/03 04:32:16;;;;;;;13.83;6.57;;;;;;;12.03;100.00;101943.91;5912048;29;20074;-66
2023/09/03 04:35:12;;;;;;;13.77;6.40;;;;;;;12.06;100.00;101933.03;5911501;29;20067;-67
2023/09/03 04:38:08;;;;;;;11.20;6.07;;;;;;;12.14;100.00;101951.84;5912083;29;20040;-68
2023/09/03 04:41:07;;;;;;;12.52;6.40;;;;;;;12.12;100.00;101943.16;5911854;29;20049;-67
2023/09/03 04:44:07;;;;;;;11.52;6.35;;;;;;;12.00;100.00;101938.84;5911442;29;20124;-67
2023/09/03 04:47:02;;;;;;;14.18;6.90;;;;;;;11.93;100.00;101949.97;5911964;29;20037;-69
2023/09/03 04:49:57;;;;;;;13.33;6.77;;;;;;;11.87;100.00;101945.16;5912122;29;20040;-68
2023/09/03 04:52:56;;;;;;;13.53;6.73;;;;;;;12.15;100.00;101938.44;5911495;29;20035;-68
2023/09/03 04:55:51;;;;;;;12.65;7.15;;;;;;;12.13;100.00;101958.13;5912794;29;20032;-67
2023/09/03 04:58:46;;;;;;;17.03;7.97;;;;;;;12.16;100.00;101968.53;5912500;29;20080;-67
2023/09/03 05:01:42;;;;;;;15.13;7.77;;;;;;;12.06;100.00;101967.59;5911509;29;20040;-68
2023/09/03 05:04:38;;;;;;;16.50;8.18;;;;;;;12.13;100.00;101977.59;5910824;29;20472;-66
2023/09/03 05:07:33;;;;;;;14.00;7.10;;;;;;;12.22;100.00;101984.00;5911650;29;20043;-66
2023/09/03 05:10:28;;;;;;;15.23;7.37;;;;;;;12.33;100.00;101997.25;5911006;29;20039;-69
2023/09/03 05:13:24;;;;;;;13.70;7.70;;;;;;;12.33;100.00;101990.13;5910385;29;20043;-67
2023/09/03 05:16:19;;;;;;;15.25;7.75;;;;;;;12.54;100.00;101987.50;5910595;29;20052;-68
2023/09/03 05:19:14;;;;;;;15.63;7.60;;;;;;;12.78;100.00;101977.47;5911486;29;20033;-67
2023/09/03 05:22:10;;;;;;;14.52;7.30;;;;;;;12.76;100.00;102003.38;5910887;29;20757;-68
2023/09/03 05:25:06;;;;;;;14.53;8.10;;;;;;;12.64;100.00;102009.69;5910301;29;20089;-66
2023/09/03 05:28:01;;;;;;;17.33;7.63;;;;;;;12.82;100.00;102024.16;5910943;29;20040;-67
2023/09/03 05:30:56;;;;;;;14.32;7.18;;;;;;;12.77;100.00;102023.72;5911286;29;20043;-66
2023/09/03 05:33:52;;;;;;;15.87;7.17;;;;;;;12.92;100.00;102034.88;5910187;29;20049;-66
2023/09/03 05:36:47;;;;;;;16.43;8.03;;;;;;;13.11;100.00;102051.03;5910792;29;20103;-66
2023/09/03 05:39:42;;;;;;;16.40;7.83;;;;;;;13.03;100.00;102054.31;5915133;29;20373;-68
2023/09/03 05:42:38;;;;;;;14.68;7.40;;;;;;;13.20;100.00;102065.38;5919757;29;20476;-66
2023/09/03 05:45:33;;;;;;;17.77;8.43;;;;;;;13.21;100.00;102045.78;5910039;29;20040;-66
2023/09/03 05:48:29;;;;;;;15.73;8.45;;;;;;;13.25;100.00;102071.16;5910990;29;20028;-68
2023/09/03 05:51:24;;;;;;;18.03;8.20;;;;;;;13.31;100.00;102073.31;5910393;29;20044;-67
2023/09/03 05:54:19;;;;;;;16.27;7.87;;;;;;;13.28;100.00;102041.59;5909740;29;20111;-68
2023/09/03 05:57:15;;;;;;;15.80;8.23;;;;;;;13.39;100.00;102054.84;5910447;29;20284;-68
2023/09/03 06:00:10;;;;;;;15.67;8.23;;;;;;;13.48;100.00;102060.22;5910844;29;20031;-66
2023/09/03 06:03:06;;;;;;;16.75;7.10;;;;;;;13.59;100.00;102067.28;5910573;29;20448;-66
2023/09/03 06:06:05;;;;;;;15.13;7.40;;;;;;;13.50;100.00;102041.47;5909572;29;20039;-66
2023/09/03 06:09:01;;;;;;;15.20;7.72;;;;;;;13.56;100.00;102040.94;5910708;29;20040;-68
2023/09/03 06:11:56;;;;;;;13.30;6.53;;;;;;;13.76;100.00;102055.19;5910172;29;20045;-68
2023/09/03 06:14:51;;;;;;;14.37;7.50;;;;;;;13.98;100.00;102053.19;5909741;29;20488;-67
2023/09/03 06:17:49;;;;;;;12.67;7.37;;;;;;;13.90;100.00;102069.00;5910739;29;20281;-66
2023/09/03 06:20:44;;;;;;;13.80;7.40;;;;;;;13.95;100.00;102057.94;5910062;29;20029;-67
2023/09/03 06:23:40;;;;;;;14.80;6.85;;;;;;;14.04;100.00;102068.66;5909779;29;20507;-66
2023/09/03 06:26:35;;;;;;;15.53;6.67;;;;;;;14.22;100.00;102088.34;5910507;29;20043;-66
2023/09/03 06:29:30;;;;;;;12.47;6.43;;;;;;;14.35;100.00;102092.66;5910522;29;20028;-65
2023/09/03 06:32:28;;;;;;;12.47;6.63;;;;;;;14.18;100.00;102078.94;5909786;29;20124;-66
2023/09/03 06:35:23;;;;;;;10.73;6.57;;;;;;;14.32;100.00;102083.91;5909360;29;20037;-68
2023/09/03 06:38:18;;;;;;;16.05;6.40;;;;;;;14.50;100.00;102080.59;5910173;29;20040;-67
2023/09/03 06:41:14;;;;;;;12.33;6.10;;;;;;;14.71;100.00;102079.50;5910085;29;20036;-67
2023/09/03 06:44:09;;;;;;;10.93;6.00;;;;;;;14.89;100.00;102087.66;5909658;29;20154;-68
2023/09/03 06:47:05;;;;;;;12.97;6.00;;;;;;;15.12;100.00;102089.06;5910286;29;20051;-67
2023/09/03 06:50:00;;;;;;;12.90;5.50;;;;;;;15.19;100.00;102094.69;5914392;29;20051;-67
2023/09/03 06:52:56;;;;;;;10.55;5.50;;;;;;;15.49;100.00;102098.03;5913855;29;20127;-66
2023/09/03 06:55:51;;;;;;;11.47;5.73;;;;;;;15.68;100.00;102090.97;5912422;29;20040;-68
2023/09/03 06:58:47;;;;;;;9.88;4.85;;;;;;;15.92;100.00;102094.00;5913133;29;20579;-69
2023/09/03 07:01:42;;;;;;;8.20;4.50;;;;;;;16.23;100.00;102060.56;5913277;29;20036;-67
2023/09/03 07:04:37;;;;;;;7.33;3.90;;;;;;;16.42;100.00;102070.31;5912781;29;20055;-66
2023/09/03 07:07:33;;;;;;;9.82;4.65;;;;;;;16.38;100.00;102069.81;5913495;29;20040;-67
2023/09/03 07:10:29;;;;;;;8.32;4.85;;;;;;;16.85;100.00;102078.50;5913625;29;20044;-66
2023/09/03 07:13:24;;;;;;;7.10;4.07;;;;;;;17.33;100.00;102071.88;5914095;29;20044;-68
2023/09/03 07:16:19;;;;;;;5.73;2.80;;;;;;;17.80;100.00;102086.66;5921623;29;20036;-66
2023/09/03 07:19:15;;;;;;;6.25;3.15;;;;;;;17.93;100.00;102086.22;5922021;29;20076;-67
2023/09/03 07:22:10;;;;;;;5.77;3.00;;;;;;;18.11;100.00;102100.38;5921602;29;20048;-67
2023/09/03 07:25:06;;;;;;;5.43;2.97;;;;;;;17.79;100.00;102099.22;5912374;29;20036;-68
2023/09/03 07:28:02;;;;;;;5.35;3.30;;;;;;;17.83;100.00;102105.94;5920366;29;20033;-68
2023/09/03 07:30:57;;;;;;;6.20;3.13;;;;;;;18.15;100.00;102104.44;5913069;29;20115;-67
2023/09/03 07:33:53;;;;;;;6.47;3.30;;;;;;;18.11;99.66;102116.50;5913541;29;20040;-66
2023/09/03 07:36:48;;;;;;;7.10;3.22;;;;;;;18.05;98.79;102112.59;5911004;29;20056;-66
2023/09/03 07:39:44;;;;;;;6.53;3.27;;;;;;;17.99;99.22;102112.41;5912616;29;20396;-66
2023/09/03 07:42:39;;;;;;;7.13;3.27;;;;;;;18.17;100.00;102078.25;5912044;29;20340;-67
2023/09/03 07:45:34;;;;;;;8.88;3.20;;;;;;;18.52;96.10;102123.75;5894828;29;20289;-67
2023/09/03 07:48:30;;;;;;;7.03;3.10;;;;;;;18.27;95.42;102127.31;5912264;29;20040;-68
2023/09/03 07:51:25;;;;;;;6.67;3.30;;;;;;;18.50;97.65;102127.59;5912590;29;20273;-67
2023/09/03 07:54:20;;;;;;;6.00;2.70;;;;;;;18.67;95.04;102134.72;5910979;29;20041;-67
2023/09/03 07:57:16;;;;;;;5.53;3.07;;;;;;;18.86;94.48;102137.13;5912538;29;20510;-67
2023/09/03 08:00:13;;;;;;;5.85;2.75;;;;;;;18.80;93.08;102130.56;5912487;29;20396;-69
2023/09/03 08:03:09;;;;;;;5.72;2.47;;;;;;;19.05;90.37;102149.41;5923848;29;20031;-68
2023/09/03 08:06:04;;;;;;;6.73;2.90;;;;;;;19.01;90.52;102144.38;5911904;29;20036;-66
2023/09/03 08:09:00;;;;;;;4.57;2.55;;;;;;;18.99;89.82;102134.78;5911069;29;20307;-68
2023/09/03 08:11:55;;;;;;;7.53;2.70;;;;;;;18.97;88.41;102136.78;5911367;29;20041;-70
2023/09/03 08:14:50;;;;;;;8.35;3.25;;;;;;;18.76;90.92;102134.56;5911305;29;20024;-67
2023/09/03 08:17:45;;;;;;;7.60;3.10;;;;;;;19.09;90.15;102140.00;5912308;29;20041;-67
2023/09/03 08:20:41;;;;;;;6.50;2.13;;;;;;;19.14;88.63;102133.09;5911584;29;20068;-66
2023/09/03 08:23:38;;;;;;;4.03;1.25;;;;;;;19.24;84.71;102143.72;5909355;29;20075;-67
2023/09/03 08:26:33;;;;;;;4.35;2.28;;;;;;;19.22;86.07;102140.34;5914791;29;20099;-67
2023/09/03 08:29:29;;;;;;;3.57;1.83;;;;;;;19.50;83.92;102139.03;5916336;29;20041;-69
2023/09/03 08:32:24;;;;;;;4.43;1.30;;;;;;;19.27;83.80;102146.88;5913146;29;20120;-68
2023/09/03 08:35:20;;;;;;;7.67;1.83;;;;;;;19.67;83.32;102150.63;5916501;29;20041;-68
2023/09/03 08:38:15;;;;;;;3.80;1.60;;;;;;;19.80;78.75;102151.78;5911693;29;20024;-68
2023/09/03 08:41:10;;;;;;;4.70;1.60;;;;;;;20.25;75.77;102135.00;5919630;29;20076;-66
2023/09/03 08:44:27;;;;;;;3.50;2.00;;;;;;;20.17;78.59;102153.88;5893067;29;20309;-69
2023/09/03 08:47:22;;;;;;;4.25;1.63;;;;;;;20.86;76.04;102149.53;5926734;29;20044;-69
2023/09/03 08:50:18;;;;;;;4.28;1.80;;;;;;;21.25;72.37;102147.63;5899304;29;20041;-69
2023/09/03 08:53:14;;;;;;;3.72;1.58;;;;;;;21.15;70.46;102139.75;5922871;29;20037;-68
2023/09/03 08:56:10;;;;;;;4.18;1.30;;;;;;;20.59;71.32;102140.94;5911146;29;20058;-67
2023/09/03 08:59:05;;;;;;;3.08;1.45;;;;;;;20.16;70.75;102147.63;5894154;29;20047;-67
2023/09/03 09:02:01;;;;;;;6.23;1.57;;;;;;;20.35;72.73;102140.22;5911111;29;20373;-69
2023/09/03 09:04:56;;;;;;;2.97;1.35;;;;;;;20.67;71.98;102148.13;5900975;29;20092;-68
2023/09/03 09:07:51;;;;;;;3.67;1.15;;;;;;;20.66;70.57;102150.00;5911444;29;20096;-69
2023/09/03 09:10:50;;;;;;;2.43;1.30;;;;;;;21.14;67.52;102138.09;5910605;29;20035;-68
2023/09/03 09:13:57;;;;;;;2.42;1.17;;;;;;;21.56;67.15;102158.31;5892946;29;20553;-68
2023/09/03 09:16:52;;;;;;;3.08;1.10;;;;;;;21.53;64.22;102139.78;5909489;29;20036;-67
2023/09/03 09:19:48;;;;;;;2.60;0.90;;;;;;;21.18;62.18;102150.19;5909509;29;20044;-67
2023/09/03 09:22:44;;;;;;;2.53;1.10;;;;;;;20.80;64.49;102159.19;5910525;29;20369;-68
2023/09/03 09:25:40;;;;;;;2.63;1.10;;;;;;;21.10;65.61;102136.75;5909793;29;20316;-68
2023/09/03 09:28:35;;;;;;;3.53;1.20;;;;;;;21.60;63.19;102143.44;5910311;29;20040;-69
2023/09/03 09:31:32;;;;;;;2.80;1.00;;;;;;;21.36;61.27;102164.22;5908857;29;20032;-68
2023/09/03 09:34:27;;;;;;;3.30;1.00;;;;;;;21.00;61.22;102156.88;5907906;29;20036;-68
2023/09/03 09:37:22;;;;;;;2.87;1.20;;;;;;;21.23;60.46;102139.69;5910072;29;20059;-68
2023/09/03 09:40:26;;;;;;;2.03;1.00;;;;;;;21.24;60.75;102138.69;5910296;29;20107;-68
2023/09/03 09:43:22;;;;;;;2.55;1.35;;;;;;;21.12;61.51;102145.50;5910116;29;20056;-68
2023/09/03 09:46:27;;;;;;;3.67;1.20;;;;;;;21.21;62.75;102163.34;5909792;29;20548;-68
2023/09/03 09:49:22;;;;;;;2.67;1.10;;;;;;;21.06;62.64;102156.16;5908241;29;20064;-67
2023/09/03 09:52:18;;;;;;;5.33;1.53;;;;;;;21.17;62.62;102166.59;5910644;29;20055;-67
2023/09/03 09:55:17;;;;;;;3.10;1.13;;;;;;;21.25;62.19;102150.31;5908894;29;20392;-68
2023/09/03 09:58:12;;;;;;;2.05;1.02;;;;;;;21.00;59.08;102164.97;5906454;29;20032;-66
2023/09/03 10:01:08;;;;;;;3.05;1.00;;;;;;;20.85;59.55;102150.53;5907498;29;20096;-69
2023/09/03 10:04:04;;;;;;;2.38;1.20;;;;;;;21.02;59.94;102158.38;5907363;29;20112;-67
2023/09/03 10:06:59;;;;;;;2.55;1.13;;;;;;;21.08;58.68;102144.22;5907907;29;20040;-66
2023/09/03 10:09:55;;;;;;;1.67;1.00;;;;;;;21.18;59.43;102155.59;5912197;29;20120;-66
2023/09/03 10:12:50;;;;;;;2.95;0.98;;;;;;;21.47;56.76;102162.94;5915924;29;20036;-67
2023/09/03 10:15:46;;;;;;;3.20;1.40;;;;;;;21.79;57.49;102159.13;5921135;29;20039;-67
2023/09/03 10:18:46;;;;;;;6.57;1.27;;;;;;;22.34;56.76;102153.31;5918142;29;20503;-67
2023/09/03 10:21:42;;;;;;;2.97;1.00;;;;;;;22.38;55.94;102132.97;5908333;29;20800;-67
2023/09/03 10:24:37;;;;;;;4.22;1.48;;;;;;;22.41;54.18;102128.03;5927196;29;20046;-66
2023/09/03 10:27:35;;;;;;;4.45;1.27;;;;;;;22.34;53.37;102137.91;5914363;29;20052;-68
2023/09/03 10:30:34;;;;;;;0.60;0.60;;;;;;;22.05;51.69;102137.94;5897733;29;20453;-65
2023/09/03 10:33:30;;;;;;;4.07;1.40;;;;;;;22.00;51.38;102126.84;5897929;29;20108;-68
2023/09/03 10:36:25;;;;;;;2.67;1.03;;;;;;;22.24;53.21;102159.00;5910986;29;20472;-67
2023/09/03 10:39:21;;;;;;;4.17;1.00;;;;;;;22.09;51.88;102146.50;5913509;29;20296;-68
2023/09/03 10:42:26;;;;;;;2.38;1.08;;;;;;;22.16;53.47;102156.38;5912300;29;20047;-67
2023/09/03 10:45:22;;;;;;;4.13;1.00;;;;;;;22.10;51.82;102146.31;5912312;29;20484;-68
2023/09/03 10:48:18;;;;;;;2.28;1.00;;;;;;;22.68;51.67;102163.53;5913021;29;20052;-67
2023/09/03 10:51:32;;;;;;;1.70;1.00;;;;;;;23.23;50.71;102165.59;5912623;29;20032;-67
2023/09/03 10:54:28;;;;;;;3.40;1.30;;;;;;;23.02;50.94;102166.41;5911370;29;20044;-67
2023/09/03 10:57:23;;;;;;;2.07;1.00;;;;;;;22.67;52.89;102153.72;5912834;29;20101;-67
2023/09/03 11:00:21;;;;;;;1.67;0.97;;;;;;;22.44;48.47;102170.91;5913207;29;20397;-67
2023/09/03 11:03:18;;;;;;;2.80;1.00;;;;;;;21.97;48.91;102172.28;5913045;29;20088;-66
2023/09/03 11:06:18;;;;;;;1.92;0.80;;;;;;;22.20;51.34;102175.78;5925342;29;20092;-68
2023/09/03 11:09:13;;;;;;;2.17;1.17;;;;;;;22.50;48.81;102190.97;5912620;29;20062;-69
2023/09/03 11:12:09;;;;;;;3.08;1.00;;;;;;;22.87;46.63;102176.47;5913367;29;20073;-67
2023/09/03 11:15:05;;;;;;;1.98;0.90;;;;;;;23.18;46.13;102170.75;5912791;29;20111;-68
2023/09/03 11:18:00;;;;;;;2.00;1.10;;;;;;;22.92;47.59;102164.03;5904866;29;20036;-68
2023/09/03 11:20:56;;;;;;;1.80;0.80;;;;;;;22.33;47.34;102174.09;5912298;29;20535;-66
2023/09/03 11:23:58;;;;;;;2.58;0.98;;;;;;;21.96;47.66;102171.44;5911933;29;20041;-68
2023/09/03 11:27:06;;;;;;;1.45;0.70;;;;;;;22.10;48.28;102157.13;5912070;29;20036;-68
2023/09/03 11:30:06;;;;;;;2.85;1.17;;;;;;;22.29;48.47;102172.78;5913390;29;20536;-66
2023/09/03 11:33:02;;;;;;;1.85;0.90;;;;;;;22.42;50.54;102178.34;5913630;29;20028;-68
2023/09/03 11:35:59;;;;;;;1.20;0.75;;;;;;;22.32;48.19;102161.59;5911989;29;20089;-68
2023/09/03 11:38:56;;;;;;;2.67;1.00;;;;;;;22.51;49.68;102155.59;5912700;29;20062;-68
2023/09/03 11:41:51;;;;;;;1.60;0.85;;;;;;;23.02;49.68;102177.25;5914462;29;20119;-67
2023/09/03 11:44:50;;;;;;;3.00;1.00;;;;;;;22.97;48.76;102174.28;5912100;29;20092;-67
2023/09/03 11:47:47;;;;;;;2.10;1.02;;;;;;;22.72;49.08;102178.38;5916334;29;20035;-66
2023/09/03 11:50:50;;;;;;;4.50;1.00;;;;;;;22.80;50.67;102180.97;5921078;29;20039;-68
2023/09/03 11:53:47;;;;;;;3.05;1.30;;;;;;;22.92;48.77;102196.50;5911878;29;20040;-67
2023/09/03 11:56:42;;;;;;;3.05;1.15;;;;;;;23.05;49.80;102195.81;5895406;29;20048;-67
2023/09/03 11:59:37;;;;;;;1.60;1.05;;;;;;;22.77;49.97;102194.88;5912299;29;20037;-66
2023/09/03 12:02:33;;;;;;;2.75;1.10;;;;;;;23.06;49.25;102205.59;5909950;29;20045;-67
2023/09/03 12:05:28;;;;;;;2.70;1.13;;;;;;;22.40;48.20;102185.81;5911885;29;20047;-68
2023/09/03 12:08:24;;;;;;;1.10;0.60;;;;;;;22.59;46.74;102210.59;5895812;29;20037;-68
2023/09/03 12:11:28;;;;;;;2.20;0.85;;;;;;;22.69;45.60;102194.97;5894917;29;20060;-67
2023/09/03 12:14:30;;;;;;;2.03;1.00;;;;;;;22.42;49.00;102205.41;5901107;29;20100;-69
2023/09/03 12:17:26;;;;;;;3.03;1.05;;;;;;;22.82;48.82;102203.25;5900172;29;20033;-67
2023/09/03 12:20:39;;;;;;;1.75;0.90;;;;;;;23.05;48.62;102198.50;5924674;29;20036;-68
2023/09/03 12:23:37;;;;;;;2.33;1.00;;;;;;;23.33;47.95;102204.84;5920487;29;20547;-67
2023/09/03 12:26:36;;;;;;;2.83;0.95;;;;;;;22.81;47.63;102207.81;5925605;29;20082;-67
2023/09/03 12:29:38;;;;;;;2.05;1.15;;;;;;;22.37;48.69;102186.19;5931933;29;20044;-68
2023/09/03 12:32:34;;;;;;;4.78;1.13;;;;;;;22.85;48.61;102194.75;5915835;29;20039;-68
2023/09/03 12:35:29;;;;;;;2.67;1.00;;;;;;;23.06;46.19;102194.78;5910132;29;20377;-70
2023/09/03 12:38:25;;;;;;;3.27;1.00;;;;;;;22.98;48.91;102193.03;5912896;29;20092;-67
2023/09/03 12:41:25;;;;;;;2.22;0.90;;;;;;;23.20;48.07;102188.50;5915076;29;20039;-68
2023/09/03 12:44:21;;;;;;;2.70;1.38;;;;;;;23.09;48.00;102194.41;5917989;29;20075;-68
2023/09/03 12:47:17;;;;;;;3.03;1.00;;;;;;;23.07;46.97;102199.19;5913195;29;20036;-67
2023/09/03 12:50:12;;;;;;;3.03;0.98;;;;;;;22.85;46.92;102181.22;5910836;29;20564;-68
2023/09/03 12:53:07;;;;;;;3.27;1.00;;;;;;;22.99;47.62;102181.16;5911429;29;20072;-68
2023/09/03 12:56:03;;;;;;;4.70;1.60;;;;;;;23.06;48.80;102186.66;5909051;29;20099;-68
2023/09/03 12:59:04;;;;;;;3.05;1.10;;;;;;;23.02;48.85;102201.59;5911077;29;20033;-69
2023/09/03 13:02:00;;;;;;;2.50;1.25;;;;;;;23.06;49.36;102192.91;5910383;29;20116;-68
2023/09/03 13:04:55;;;;;;;4.27;0.97;;;;;;;23.32;49.42;102195.03;5910434;29;20052;-68
2023/09/03 13:07:50;;;;;;;1.40;0.83;;;;;;;23.70;47.40;102185.63;5910798;29;20664;-69
2023/09/03 13:10:45;;;;;;;4.60;1.20;;;;;;;23.81;47.06;102175.31;5911195;29;20048;-68
2023/09/03 13:13:41;;;;;;;4.23;1.30;;;;;;;23.99;47.00;102178.34;5908422;29;20032;-68
2023/09/03 13:16:37;;;;;;;3.70;1.38;;;;;;;23.91;46.07;102197.47;5920830;29;20051;-67
2023/09/03 13:19:32;;;;;;;3.35;1.20;;;;;;;24.02;46.30;102183.38;5914821;29;20032;-69
2023/09/03 13:22:28;;;;;;;2.37;1.10;;;;;;;24.39;46.48;102210.13;5910082;29;20552;-68
2023/09/03 13:25:23;;;;;;;3.27;1.23;;;;;;;24.60;45.03;102204.59;5917212;29;20165;-69
2023/09/03 13:28:18;;;;;;;1.93;1.00;;;;;;;24.50;43.91;102203.31;5910628;29;20040;-68
2023/09/03 13:31:15;;;;;;;2.07;1.00;;;;;;;24.32;44.36;102195.72;5909765;29;20040;-67